San Juan, PR (00928)

2:12 PM AST on August 21, 2014 (GMT -0400)
Reparto Metropolitano | Change Station
CLOSE
Current Station
Personal Weather Station
Location: San Juan, PR
Elevation: 36 ft
Nearby Weather Stations
Active Advisory: Flash Flood Watch

Elev 36 ft 18.40 °N, 66.08 °W | Updated 5 minutes ago

Scattered Clouds
Scattered Clouds
84.7 °F
Feels Like 82 °F
N
8.0
Wind Variable Wind from NNE
Gusts 18.0 mph

Today
High -- | Low -- °F
--% Chance of Precip.
Yesterday
High -- | Low -- °F
Precip. -- in
6:07 AM 6:46 PM
Waning Crescent, 13% visible
Pressure 29.96 in
Visibility 10.0 miles
Clouds Few 1900 ft
Scattered Clouds 3500 ft
Scattered Clouds 7000 ft
Heat Index 82 °F
Dew Point Not available.
Humidity Not available.
Rainfall 0.09 in
Snow Depth Not available.
UV 5.9 out of 12
Pollen Not available.
Air Quality Not available.
Flu Activity Not available.
METAR TJSJ 211756Z COR 03015G22KT 10SM FEW019 SCT035 SCT070 30/26 A2996 RMK AO2 RAE04 SLP143 SHRA DSNT SE P0001 60003 T03000256 10311 20283 58020

More Conditions Fewer Conditions

Pressure 29.96 in
Visibility 10.0 miles
Clouds Few 1900 ft
Scattered Clouds 3500 ft
Scattered Clouds 7000 ft
Heat Index 82 °F
Dew Point Not available.
Humidity Not available.
Rainfall 0.09 in
Snow Depth Not available.
UV 5.9 out of 12
Pollen Not available.
Air Quality Not available.
Flu Activity Not available.
METAR TJSJ 211756Z COR 03015G22KT 10SM FEW019 SCT035 SCT070 30/26 A2996 RMK AO2 RAE04 SLP143 SHRA DSNT SE P0001 60003 T03000256 10311 20283 58020

More Conditions Fewer Conditions

Nowcast | as of 1:39 PM AST on August 21, 2014

Showers and thunderstorms will continue to develop across portions of central...western and southwest of Puerto Rico during the next few hours. Therefore...locally heavy rain...strong gusty winds... frequent lightning...ponding of water on roadways...reduced visibilities and hazardous driving conditions are expected as these storms pass by.

×

10-Day Weather Forecast

Almanac

Astronomy

Aug. 21, 2014 Rise Set
Actual Time 6:07 AM AST 6:46 PM AST
Civil Twilight 5:45 AM AST 7:09 PM AST
Nautical Twilight 5:18 AM AST 7:35 PM AST
Astronomical Twilight 4:52 AM AST 8:02 PM AST
Moon 2:48 AM AST 4:00 PM AST
Length of Visible Light 13h 24m
Length of Day
12h 39m
Tomorrow will be 0m 57s shorter.
Waning Crescent, 13% of the Moon is Illuminated
Today
Waning Crescent
Aug 25
New
Sep 2
First Quarter
Sep 8
Full
Sep 15
Last Quarter

Community

WunderPhotos

Upload Photos

1,745,992 photos uploaded!

WunderBlogs® & News

Nearby

Snow Depth

Station Depth Elevation
No new snow has been reported.

Earthquake Activity

City Distance Mag. Time & Date
No recent earthquake activity has been reported nearby.
Minimum magnitude displayed is 2.5.

Coastal Water Temperatures

Place Temperature
San Juan, PR 86.0 °F
Mayaguez, PR 84.9 °F
Esperanza, PR 84.9 °F

Nearby Weather Stations